sensor_id;sensor_type;location;lat;lon;timestamp;pressure;altitude;pressure_sealevel;temperature;humidity
6393;BME280;3229;42.674;23.282;2023-02-24T00:01:37;94634.69;;;12.79;60.41
6393;BME280;3229;42.674;23.282;2023-02-24T00:04:06;94602.50;;;12.59;60.59
6393;BME280;3229;42.674;23.282;2023-02-24T00:06:35;94631.63;;;12.76;60.45
6393;BME280;3229;42.674;23.282;2023-02-24T00:09:04;94635.28;;;12.73;60.40
6393;BME280;3229;42.674;23.282;2023-02-24T00:11:33;94619.25;;;12.71;60.35
6393;BME280;3229;42.674;23.282;2023-02-24T00:14:03;94620.72;;;12.74;60.29
6393;BME280;3229;42.674;23.282;2023-02-24T00:16:32;94620.06;;;12.72;60.49
6393;BME280;3229;42.674;23.282;2023-02-24T00:18:59;94623.72;;;12.69;60.54
6393;BME280;3229;42.674;23.282;2023-02-24T00:21:27;94614.53;;;12.59;60.35
6393;BME280;3229;42.674;23.282;2023-02-24T00:23:55;94626.44;;;12.68;60.27
6393;BME280;3229;42.674;23.282;2023-02-24T00:26:25;94615.03;;;12.62;60.36
6393;BME280;3229;42.674;23.282;2023-02-24T00:28:54;94617.44;;;12.64;60.35
6393;BME280;3229;42.674;23.282;2023-02-24T00:31:21;94607.81;;;12.58;60.46
6393;BME280;3229;42.674;23.282;2023-02-24T00:33:50;94614.06;;;12.63;60.47
6393;BME280;3229;42.674;23.282;2023-02-24T00:36:21;94616.63;;;12.63;60.45
6393;BME280;3229;42.674;23.282;2023-02-24T00:38:50;94612.59;;;12.61;60.40
6393;BME280;3229;42.674;23.282;2023-02-24T00:41:23;94605.22;;;12.58;60.41
6393;BME280;3229;42.674;23.282;2023-02-24T00:43:54;94613.28;;;12.63;60.44
6393;BME280;3229;42.674;23.282;2023-02-24T00:46:23;94604.28;;;12.59;60.33
6393;BME280;3229;42.674;23.282;2023-02-24T00:48:52;94617.75;;;12.61;60.18
6393;BME280;3229;42.674;23.282;2023-02-24T00:51:22;94612.59;;;12.61;60.30
6393;BME280;3229;42.674;23.282;2023-02-24T00:53:51;94600.63;;;12.61;60.33
6393;BME280;3229;42.674;23.282;2023-02-24T00:56:20;94598.84;;;12.62;60.47
6393;BME280;3229;42.674;23.282;2023-02-24T00:58:47;94598.84;;;12.62;60.36
6393;BME280;3229;42.674;23.282;2023-02-24T01:01:15;94587.91;;;12.60;60.49
6393;BME280;3229;42.674;23.282;2023-02-24T01:03:42;94592.75;;;12.63;60.37
6393;BME280;3229;42.674;23.282;2023-02-24T01:06:12;94603.00;;;12.63;60.13
6393;BME280;3229;42.674;23.282;2023-02-24T01:08:39;94592.75;;;12.63;60.25
6393;BME280;3229;42.674;23.282;2023-02-24T01:11:12;94583.28;;;12.63;60.51
6393;BME280;3229;42.674;23.282;2023-02-24T01:13:56;94590.19;;;12.63;60.24
6393;BME280;3229;42.674;23.282;2023-02-24T01:16:23;94582.66;;;12.61;60.22
6393;BME280;3229;42.674;23.282;2023-02-24T01:18:50;94576.69;;;12.61;60.29
6393;BME280;3229;42.674;23.282;2023-02-24T01:21:19;94580.72;;;12.63;60.13
6393;BME280;3229;42.674;23.282;2023-02-24T01:23:47;94581.69;;;12.62;60.17
6393;BME280;3229;42.674;23.282;2023-02-24T01:26:15;94577.66;;;12.60;60.27
6393;BME280;3229;42.674;23.282;2023-02-24T01:28:42;94573.50;;;12.59;60.20
6393;BME280;3229;42.674;23.282;2023-02-24T01:31:13;94564.19;;;12.58;60.34
6393;BME280;3229;42.674;23.282;2023-02-24T01:33:42;94571.09;;;12.57;60.43
6393;BME280;3229;42.674;23.282;2023-02-24T01:36:12;94557.88;;;12.52;60.35
6393;BME280;3229;42.674;23.282;2023-02-24T01:38:40;94567.72;;;12.57;60.29
6393;BME280;3229;42.674;23.282;2023-02-24T01:41:09;94578.91;;;12.55;60.41
6393;BME280;3229;42.674;23.282;2023-02-24T01:43:58;94573.16;;;12.53;60.48
6393;BME280;3229;42.674;23.282;2023-02-24T01:46:27;94568.31;;;12.50;60.21
6393;BME280;3229;42.674;23.282;2023-02-24T01:48:57;94573.59;;;12.49;60.43
6393;BME280;3229;42.674;23.282;2023-02-24T01:51:28;94559.97;;;12.48;60.49
6393;BME280;3229;42.674;23.282;2023-02-24T01:53:58;94563.34;;;12.49;60.50
6393;BME280;3229;42.674;23.282;2023-02-24T01:56:25;94571.16;;;12.47;60.65
6393;BME280;3229;42.674;23.282;2023-02-24T01:58:54;94564.44;;;12.46;60.47
6393;BME280;3229;42.674;23.282;2023-02-24T02:01:22;94557.88;;;12.44;60.48
6393;BME280;3229;42.674;23.282;2023-02-24T02:03:49;94556.41;;;12.41;60.39
6393;BME280;3229;42.674;23.282;2023-02-24T02:06:18;94550.78;;;12.38;60.66
6393;BME280;3229;42.674;23.282;2023-02-24T02:08:45;94569.53;;;12.38;60.41
6393;BME280;3229;42.674;23.282;2023-02-24T02:11:15;94562.78;;;12.37;60.64
6393;BME280;3229;42.674;23.282;2023-02-24T02:13:45;94565.34;;;12.37;60.47
6393;BME280;3229;42.674;23.282;2023-02-24T02:19:19;94566.63;;;12.33;60.64
6393;BME280;3229;42.674;23.282;2023-02-24T02:22:31;94563.53;;;12.29;60.52
6393;BME280;3229;42.674;23.282;2023-02-24T02:25:09;94563.72;;;12.28;60.58
6393;BME280;3229;42.674;23.282;2023-02-24T02:27:59;94561.88;;;12.20;60.81
6393;BME280;3229;42.674;23.282;2023-02-24T02:31:08;94555.97;;;12.20;60.71
6393;BME280;3229;42.674;23.282;2023-02-24T02:36:51;94566.50;;;12.17;60.92
6393;BME280;3229;42.674;23.282;2023-02-24T02:39:29;94562.34;;;12.16;60.77
6393;BME280;3229;42.674;23.282;2023-02-24T02:42:05;94562.34;;;12.16;60.85
6393;BME280;3229;42.674;23.282;2023-02-24T02:44:46;94555.63;;;12.15;60.98
6393;BME280;3229;42.674;23.282;2023-02-24T02:47:25;94557.38;;;12.14;60.66
6393;BME280;3229;42.674;23.282;2023-02-24T02:49:54;94561.84;;;12.12;60.81
6393;BME280;3229;42.674;23.282;2023-02-24T02:52:30;94549.63;;;12.06;61.21
6393;BME280;3229;42.674;23.282;2023-02-24T02:55:01;94559.44;;;12.11;60.94
6393;BME280;3229;42.674;23.282;2023-02-24T02:57:30;94549.97;;;12.11;60.73
6393;BME280;3229;42.674;23.282;2023-02-24T03:00:02;94547.56;;;12.10;60.82
6393;BME280;3229;42.674;23.282;2023-02-24T03:02:39;94552.69;;;12.10;60.72
6393;BME280;3229;42.674;23.282;2023-02-24T03:05:10;94549.47;;;12.08;60.66
6393;BME280;3229;42.674;23.282;2023-02-24T03:07:47;94558.75;;;12.09;60.79
6393;BME280;3229;42.674;23.282;2023-02-24T03:10:16;94557.16;;;12.08;60.74
6393;BME280;3229;42.674;23.282;2023-02-24T03:12:49;94555.41;;;12.08;60.64
6393;BME280;3229;42.674;23.282;2023-02-24T03:15:19;94553.16;;;12.05;60.63
6393;BME280;3229;42.674;23.282;2023-02-24T03:17:49;94556.34;;;12.07;60.82
6393;BME280;3229;42.674;23.282;2023-02-24T03:20:23;94562.28;;;12.08;60.48
6393;BME280;3229;42.674;23.282;2023-02-24T03:22:58;94557.03;;;12.09;60.70
6393;BME280;3229;42.674;23.282;2023-02-24T03:25:29;94552.03;;;12.08;60.57
6393;BME280;3229;42.674;23.282;2023-02-24T03:28:01;94562.00;;;12.11;60.67
6393;BME280;3229;42.674;23.282;2023-02-24T03:30:34;94563.59;;;12.12;60.25
6393;BME280;3229;42.674;23.282;2023-02-24T03:33:10;94557.50;;;12.13;60.52
6393;BME280;3229;42.674;23.282;2023-02-24T03:35:42;94564.09;;;12.15;60.22
6393;BME280;3229;42.674;23.282;2023-02-24T03:38:11;94552.88;;;12.16;60.08
6393;BME280;3229;42.674;23.282;2023-02-24T03:40:39;94551.00;;;12.18;60.22
6393;BME280;3229;42.674;23.282;2023-02-24T03:43:13;94550.03;;;12.19;60.31
6393;BME280;3229;42.674;23.282;2023-02-24T03:45:42;94559.19;;;12.22;60.06
6393;BME280;3229;42.674;23.282;2023-02-24T03:48:11;94558.38;;;12.21;60.12
6393;BME280;3229;42.674;23.282;2023-02-24T03:50:40;94556.47;;;12.23;59.93
6393;BME280;3229;42.674;23.282;2023-02-24T03:53:34;94552.78;;;12.26;60.41
6393;BME280;3229;42.674;23.282;2023-02-24T03:56:16;94546.84;;;12.25;60.10
6393;BME280;3229;42.674;23.282;2023-02-24T03:59:00;94550.09;;;12.27;59.94
6393;BME280;3229;42.674;23.282;2023-02-24T04:01:36;94555.22;;;12.27;59.98
6393;BME280;3229;42.674;23.282;2023-02-24T04:04:13;94557.78;;;12.27;59.86
6393;BME280;3229;42.674;23.282;2023-02-24T04:06:46;94557.47;;;12.30;59.83
6393;BME280;3229;42.674;23.282;2023-02-24T04:09:26;94555.72;;;12.31;59.72
6393;BME280;3229;42.674;23.282;2023-02-24T04:12:03;94559.09;;;12.32;59.71
6393;BME280;3229;42.674;23.282;2023-02-24T04:14:39;94552.19;;;12.32;59.80
6393;BME280;3229;42.674;23.282;2023-02-24T04:17:10;94561.66;;;12.32;59.53
6393;BME280;3229;42.674;23.282;2023-02-24T04:19:45;94562.97;;;12.36;59.70
6393;BME280;3229;42.674;23.282;2023-02-24T04:22:16;94552.84;;;12.34;59.63
6393;BME280;3229;42.674;23.282;2023-02-24T04:24:48;94549.81;;;12.39;59.26
6393;BME280;3229;42.674;23.282;2023-02-24T04:27:17;94553.03;;;12.41;59.71
6393;BME280;3229;42.674;23.282;2023-02-24T04:29:47;94551.44;;;12.40;59.61
6393;BME280;3229;42.674;23.282;2023-02-24T04:32:18;94548.72;;;12.41;59.31
6393;BME280;3229;42.674;23.282;2023-02-24T04:34:47;94537.81;;;12.39;59.40
6393;BME280;3229;42.674;23.282;2023-02-24T04:37:14;94534.28;;;12.40;59.37
6393;BME280;3229;42.674;23.282;2023-02-24T04:39:41;94538.47;;;12.41;59.15
6393;BME280;3229;42.674;23.282;2023-02-24T04:42:10;94532.38;;;12.42;59.26
6393;BME280;3229;42.674;23.282;2023-02-24T04:44:37;94532.38;;;12.42;59.27
6393;BME280;3229;42.674;23.282;2023-02-24T04:47:04;94528.03;;;12.43;59.15
6393;BME280;3229;42.674;23.282;2023-02-24T04:49:31;94525.78;;;12.40;59.15
6393;BME280;3229;42.674;23.282;2023-02-24T04:51:58;94528.03;;;12.43;59.11
6393;BME280;3229;42.674;23.282;2023-02-24T04:54:25;94529.81;;;12.42;59.18
6393;BME280;3229;42.674;23.282;2023-02-24T04:56:54;94535.72;;;12.43;59.23
6393;BME280;3229;42.674;23.282;2023-02-24T04:59:22;94527.41;;;12.41;58.90
6393;BME280;3229;42.674;23.282;2023-02-24T05:01:49;94522.28;;;12.41;59.00
6393;BME280;3229;42.674;23.282;2023-02-24T05:04:17;94518.06;;;12.32;58.84
6393;BME280;3229;42.674;23.282;2023-02-24T05:06:44;94526.59;;;12.40;59.12
6393;BME280;3229;42.674;23.282;2023-02-24T05:09:12;94523.69;;;12.43;58.96
6393;BME280;3229;42.674;23.282;2023-02-24T05:11:40;94537.34;;;12.44;58.65
6393;BME280;3229;42.674;23.282;2023-02-24T05:14:09;94528.03;;;12.43;58.86
6393;BME280;3229;42.674;23.282;2023-02-24T05:16:40;94533.84;;;12.45;59.16
6393;BME280;3229;42.674;23.282;2023-02-24T05:19:08;94536.91;;;12.48;58.79
6393;BME280;3229;42.674;23.282;2023-02-24T05:21:58;94536.09;;;12.48;58.79
6393;BME280;3229;42.674;23.282;2023-02-24T05:24:27;94525.63;;;12.41;58.73
6393;BME280;3229;42.674;23.282;2023-02-24T05:26:54;94533.38;;;12.49;58.83
6393;BME280;3229;42.674;23.282;2023-02-24T05:29:24;94534.16;;;12.50;58.69
6393;BME280;3229;42.674;23.282;2023-02-24T05:31:54;94539.47;;;12.48;58.59
6393;BME280;3229;42.674;23.282;2023-02-24T05:34:24;94539.28;;;12.50;58.33
6393;BME280;3229;42.674;23.282;2023-02-24T05:36:51;94544.44;;;12.50;58.53
6393;BME280;3229;42.674;23.282;2023-02-24T05:39:18;94535.13;;;12.49;58.83
6393;BME280;3229;42.674;23.282;2023-02-24T05:41:47;94546.34;;;12.48;58.52
6393;BME280;3229;42.674;23.282;2023-02-24T05:44:15;94544.59;;;12.48;58.50
6393;BME280;3229;42.674;23.282;2023-02-24T05:46:48;94540.25;;;12.49;58.65
6393;BME280;3229;42.674;23.282;2023-02-24T05:49:18;94542.97;;;12.47;58.51
6393;BME280;3229;42.674;23.282;2023-02-24T05:51:48;94535.09;;;12.41;58.44
6393;BME280;3229;42.674;23.282;2023-02-24T05:54:21;94545.69;;;12.46;58.62
6393;BME280;3229;42.674;23.282;2023-02-24T05:56:50;94541.53;;;12.45;58.69
6393;BME280;3229;42.674;23.282;2023-02-24T05:59:17;94542.31;;;12.45;58.44
6393;BME280;3229;42.674;23.282;2023-02-24T06:01:46;94546.66;;;12.45;58.57
6393;BME280;3229;42.674;23.282;2023-02-24T06:04:16;94560.28;;;12.45;58.78
6393;BME280;3229;42.674;23.282;2023-02-24T06:06:52;94558.72;;;12.52;64.57
6393;BME280;3229;42.674;23.282;2023-02-24T06:09:19;94551.72;;;13.13;79.66
6393;BME280;3229;42.674;23.282;2023-02-24T06:11:48;94563.25;;;13.92;78.81
6393;BME280;3229;42.674;23.282;2023-02-24T06:14:15;94560.44;;;14.59;76.91
6393;BME280;3229;42.674;23.282;2023-02-24T06:16:42;94559.44;;;15.16;74.50
6393;BME280;3229;42.674;23.282;2023-02-24T06:19:10;94559.16;;;15.65;72.73
6393;BME280;3229;42.674;23.282;2023-02-24T06:21:40;94565.88;;;16.12;71.35
6393;BME280;3229;42.674;23.282;2023-02-24T06:24:10;94561.91;;;16.53;69.42
6393;BME280;3229;42.674;23.282;2023-02-24T06:26:39;94574.22;;;16.66;68.45
6393;BME280;3229;42.674;23.282;2023-02-24T06:29:10;94568.50;;;16.56;66.94
6393;BME280;3229;42.674;23.282;2023-02-24T06:31:39;94568.66;;;16.40;65.90
6393;BME280;3229;42.674;23.282;2023-02-24T06:34:06;94570.19;;;16.19;65.27
6393;BME280;3229;42.674;23.282;2023-02-24T06:36:35;94563.72;;;16.00;64.63
6393;BME280;3229;42.674;23.282;2023-02-24T06:39:04;94562.09;;;15.85;64.25
6393;BME280;3229;42.674;23.282;2023-02-24T06:41:33;94561.56;;;15.66;64.00
6393;BME280;3229;42.674;23.282;2023-02-24T06:43:59;94567.09;;;15.55;63.77
6393;BME280;3229;42.674;23.282;2023-02-24T06:46:26;94561.84;;;15.40;63.45
6393;BME280;3229;42.674;23.282;2023-02-24T06:48:54;94561.59;;;15.27;63.12
6393;BME280;3229;42.674;23.282;2023-02-24T06:51:22;94556.03;;;15.15;63.02
6393;BME280;3229;42.674;23.282;2023-02-24T06:53:54;94554.00;;;15.02;62.75
6393;BME280;3229;42.674;23.282;2023-02-24T06:56:23;94557.75;;;14.92;62.57
6393;BME280;3229;42.674;23.282;2023-02-24T06:58:51;94555.38;;;14.82;62.31
6393;BME280;3229;42.674;23.282;2023-02-24T07:01:22;94553.81;;;14.73;62.39
6393;BME280;3229;42.674;23.282;2023-02-24T07:03:50;94543.25;;;14.60;62.17
6393;BME280;3229;42.674;23.282;2023-02-24T07:06:45;94553.84;;;14.57;62.19
6393;BME280;3229;42.674;23.282;2023-02-24T07:09:14;94550.81;;;14.53;61.93
6393;BME280;3229;42.674;23.282;2023-02-24T07:11:44;94552.09;;;14.49;61.71
6393;BME280;3229;42.674;23.282;2023-02-24T07:14:13;94551.59;;;14.45;61.65
6393;BME280;3229;42.674;23.282;2023-02-24T07:16:40;94545.81;;;14.43;61.60
6393;BME280;3229;42.674;23.282;2023-02-24T07:19:11;94540.81;;;14.42;61.22
6393;BME280;3229;42.674;23.282;2023-02-24T07:21:39;94542.09;;;14.46;61.27
6393;BME280;3229;42.674;23.282;2023-02-24T07:24:09;94540.19;;;14.48;61.14
6393;BME280;3229;42.674;23.282;2023-02-24T07:26:38;94547.91;;;14.48;60.71
6393;BME280;3229;42.674;23.282;2023-02-24T07:29:09;94543.25;;;14.43;60.92
6393;BME280;3229;42.674;23.282;2023-02-24T07:31:36;94540.19;;;14.40;60.59
6393;BME280;3229;42.674;23.282;2023-02-24T07:34:03;94536.16;;;14.37;60.60
6393;BME280;3229;42.674;23.282;2023-02-24T07:36:31;94539.09;;;14.34;60.60
6393;BME280;3229;42.674;23.282;2023-02-24T07:39:04;94544.38;;;14.32;60.40
6393;BME280;3229;42.674;23.282;2023-02-24T07:41:33;94550.69;;;14.30;60.45
6393;BME280;3229;42.674;23.282;2023-02-24T07:44:01;94544.06;;;14.27;60.25
6393;BME280;3229;42.674;23.282;2023-02-24T07:46:31;94541.81;;;14.24;60.46
6393;BME280;3229;42.674;23.282;2023-02-24T07:48:58;94517.28;;;14.05;60.34
6393;BME280;3229;42.674;23.282;2023-02-24T07:51:27;94528.22;;;14.08;60.21
6393;BME280;3229;42.674;23.282;2023-02-24T07:53:56;94530.63;;;14.09;60.10
6393;BME280;3229;42.674;23.282;2023-02-24T07:56:25;94538.00;;;14.12;59.96
6393;BME280;3229;42.674;23.282;2023-02-24T07:58:53;94529.63;;;14.10;60.14
6393;BME280;3229;42.674;23.282;2023-02-24T08:01:24;94526.28;;;14.10;59.79
6393;BME280;3229;42.674;23.282;2023-02-24T08:03:55;94522.91;;;14.09;59.91
6393;BME280;3229;42.674;23.282;2023-02-24T08:06:24;94523.88;;;14.08;59.73
6393;BME280;3229;42.674;23.282;2023-02-24T08:09:03;94524.69;;;14.09;59.56
6393;BME280;3229;42.674;23.282;2023-02-24T08:11:42;94511.81;;;14.09;59.75
6393;BME280;3229;42.674;23.282;2023-02-24T08:14:11;94514.69;;;14.14;59.54
6393;BME280;3229;42.674;23.282;2023-02-24T08:16:40;94513.22;;;14.19;59.14
6393;BME280;3229;42.674;23.282;2023-02-24T08:19:09;94521.25;;;14.24;59.23
6393;BME280;3229;42.674;23.282;2023-02-24T08:21:38;94510.03;;;14.25;58.90
6393;BME280;3229;42.674;23.282;2023-02-24T08:24:06;94511.09;;;14.39;58.85
6393;BME280;3229;42.674;23.282;2023-02-24T08:26:33;94518.66;;;14.49;58.66
6393;BME280;3229;42.674;23.282;2023-02-24T08:29:09;94514.94;;;14.60;58.38
6393;BME280;3229;42.674;23.282;2023-02-24T08:31:36;94507.16;;;14.68;58.11
6393;BME280;3229;42.674;23.282;2023-02-24T08:34:03;94514.03;;;14.75;58.11
6393;BME280;3229;42.674;23.282;2023-02-24T08:36:31;94516.78;;;14.82;57.98
6393;BME280;3229;42.674;23.282;2023-02-24T08:38:58;94508.69;;;14.85;58.03
6393;BME280;3229;42.674;23.282;2023-02-24T08:41:25;94513.38;;;14.90;57.79
6393;BME280;3229;42.674;23.282;2023-02-24T08:44:11;94510.28;;;14.94;57.71
6393;BME280;3229;42.674;23.282;2023-02-24T08:46:43;94505.56;;;14.98;57.59
6393;BME280;3229;42.674;23.282;2023-02-24T08:49:14;94509.53;;;15.09;57.42
6393;BME280;3229;42.674;23.282;2023-02-24T08:51:43;94502.25;;;15.20;57.26
6393;BME280;3229;42.674;23.282;2023-02-24T08:54:14;94500.69;;;15.34;56.95
6393;BME280;3229;42.674;23.282;2023-02-24T08:56:42;94495.66;;;15.41;56.71
6393;BME280;3229;42.674;23.282;2023-02-24T08:59:15;94508.41;;;15.57;56.52
6393;BME280;3229;42.674;23.282;2023-02-24T09:02:04;94502.59;;;15.63;56.28
6393;BME280;3229;42.674;23.282;2023-02-24T09:04:53;94494.53;;;15.66;56.25
6393;BME280;3229;42.674;23.282;2023-02-24T09:07:24;94495.09;;;15.76;56.18
6393;BME280;3229;42.674;23.282;2023-02-24T09:09:52;94501.94;;;15.84;56.29
6393;BME280;3229;42.674;23.282;2023-02-24T09:12:22;94504.00;;;15.89;55.95
6393;BME280;3229;42.674;23.282;2023-02-24T09:14:51;94481.50;;;15.83;56.12
6393;BME280;3229;42.674;23.282;2023-02-24T09:17:22;94501.81;;;16.00;55.89
6393;BME280;3229;42.674;23.282;2023-02-24T09:20:09;94498.09;;;16.03;55.64
6393;BME280;3229;42.674;23.282;2023-02-24T09:23:22;94497.09;;;16.04;55.82
6393;BME280;3229;42.674;23.282;2023-02-24T09:25:55;94493.53;;;16.05;55.61
6393;BME280;3229;42.674;23.282;2023-02-24T09:28:23;94491.16;;;16.03;55.61
6393;BME280;3229;42.674;23.282;2023-02-24T09:30:52;94490.81;;;16.07;55.55
6393;BME280;3229;42.674;23.282;2023-02-24T09:33:22;94485.25;;;16.10;55.36
6393;BME280;3229;42.674;23.282;2023-02-24T09:35:52;94489.09;;;16.14;55.25
6393;BME280;3229;42.674;23.282;2023-02-24T09:38:29;94492.50;;;16.29;55.19
6393;BME280;3229;42.674;23.282;2023-02-24T09:41:26;94489.56;;;16.47;54.79
6393;BME280;3229;42.674;23.282;2023-02-24T09:44:02;94495.88;;;16.59;54.45
6393;BME280;3229;42.674;23.282;2023-02-24T09:46:36;94495.94;;;16.66;54.61
6393;BME280;3229;42.674;23.282;2023-02-24T09:49:12;94492.50;;;16.73;54.42
6393;BME280;3229;42.674;23.282;2023-02-24T09:51:42;94477.09;;;16.80;54.19
6393;BME280;3229;42.674;23.282;2023-02-24T09:54:16;94475.03;;;16.90;54.07
6393;BME280;3229;42.674;23.282;2023-02-24T09:56:52;94471.09;;;16.94;53.93
6393;BME280;3229;42.674;23.282;2023-02-24T09:59:39;94469.66;;;17.07;54.17
6393;BME280;3229;42.674;23.282;2023-02-24T10:02:28;94464.91;;;17.10;53.77
6393;BME280;3229;42.674;23.282;2023-02-24T10:05:02;94468.28;;;17.11;53.41
6393;BME280;3229;42.674;23.282;2023-02-24T10:07:37;94458.75;;;17.11;53.69
6393;BME280;3229;42.674;23.282;2023-02-24T10:10:12;94450.81;;;17.13;53.58
6393;BME280;3229;42.674;23.282;2023-02-24T10:12:48;94436.22;;;17.05;53.54
6393;BME280;3229;42.674;23.282;2023-02-24T10:15:19;94440.31;;;17.14;53.42
6393;BME280;3229;42.674;23.282;2023-02-24T10:18:26;94428.91;;;17.09;53.50
6393;BME280;3229;42.674;23.282;2023-02-24T10:20:58;94436.34;;;17.18;53.50
6393;BME280;3229;42.674;23.282;2023-02-24T10:23:35;94431.00;;;17.20;53.30
6393;BME280;3229;42.674;23.282;2023-02-24T10:26:14;94422.69;;;17.24;53.29
6393;BME280;3229;42.674;23.282;2023-02-24T10:28:59;94413.84;;;17.34;53.11
6393;BME280;3229;42.674;23.282;2023-02-24T10:31:37;94410.31;;;17.41;53.21
6393;BME280;3229;42.674;23.282;2023-02-24T10:34:09;94417.38;;;17.54;52.88
6393;BME280;3229;42.674;23.282;2023-02-24T10:36:38;94409.72;;;17.67;52.42
6393;BME280;3229;42.674;23.282;2023-02-24T10:39:12;94401.28;;;17.80;52.22
6393;BME280;3229;42.674;23.282;2023-02-24T10:41:47;94394.75;;;17.84;52.21
6393;BME280;3229;42.674;23.282;2023-02-24T10:44:21;94388.97;;;17.82;52.14
6393;BME280;3229;42.674;23.282;2023-02-24T10:46:59;94392.53;;;17.81;52.15
6393;BME280;3229;42.674;23.282;2023-02-24T10:49:39;94384.19;;;17.79;52.18
6393;BME280;3229;42.674;23.282;2023-02-24T10:52:11;94381.47;;;17.94;51.93
6393;BME280;3229;42.674;23.282;2023-02-24T10:54:58;94377.38;;;18.06;51.80
6393;BME280;3229;42.674;23.282;2023-02-24T10:57:41;94373.81;;;18.14;51.54
6393;BME280;3229;42.674;23.282;2023-02-24T11:00:18;94369.25;;;18.16;51.55
6393;BME280;3229;42.674;23.282;2023-02-24T11:02:57;94365.88;;;18.22;51.37
6393;BME280;3229;42.674;23.282;2023-02-24T11:05:36;94358.97;;;18.36;51.07
6393;BME280;3229;42.674;23.282;2023-02-24T11:08:12;94349.09;;;18.52;50.81
6393;BME280;3229;42.674;23.282;2023-02-24T11:11:01;94342.31;;;18.65;50.70
6393;BME280;3229;42.674;23.282;2023-02-24T11:13:35;94339.78;;;18.71;50.42
6393;BME280;3229;42.674;23.282;2023-02-24T11:16:19;94340.81;;;18.84;50.29
6393;BME280;3229;42.674;23.282;2023-02-24T11:19:15;94331.06;;;18.92;50.14
6393;BME280;3229;42.674;23.282;2023-02-24T11:21:42;94329.66;;;18.96;50.00
6393;BME280;3229;42.674;23.282;2023-02-24T11:24:15;94325.28;;;19.03;49.95
6393;BME280;3229;42.674;23.282;2023-02-24T11:26:44;94320.91;;;19.11;49.80
6393;BME280;3229;42.674;23.282;2023-02-24T11:29:23;94317.09;;;19.20;49.57
6393;BME280;3229;42.674;23.282;2023-02-24T11:32:05;94318.91;;;19.26;49.48
6393;BME280;3229;42.674;23.282;2023-02-24T11:34:42;94314.69;;;19.25;49.69
6393;BME280;3229;42.674;23.282;2023-02-24T11:37:23;94305.94;;;19.26;49.59
6393;BME280;3229;42.674;23.282;2023-02-24T11:39:56;94297.56;;;19.30;49.44
6393;BME280;3229;42.674;23.282;2023-02-24T11:42:26;94286.78;;;19.40;49.31
6393;BME280;3229;42.674;23.282;2023-02-24T11:45:02;94278.34;;;19.51;49.09
6393;BME280;3229;42.674;23.282;2023-02-24T11:47:33;94275.97;;;19.63;49.08
6393;BME280;3229;42.674;23.282;2023-02-24T11:50:13;94266.56;;;19.75;48.80
6393;BME280;3229;42.674;23.282;2023-02-24T11:52:44;94266.94;;;19.86;48.58
6393;BME280;3229;42.674;23.282;2023-02-24T11:55:20;94252.31;;;19.98;48.49
6393;BME280;3229;42.674;23.282;2023-02-24T11:57:53;94257.50;;;20.04;48.46
6393;BME280;3229;42.674;23.282;2023-02-24T12:00:25;94257.25;;;20.13;48.35
6393;BME280;3229;42.674;23.282;2023-02-24T12:02:58;94250.44;;;20.12;48.27
6393;BME280;3229;42.674;23.282;2023-02-24T12:05:31;94244.28;;;20.13;48.31
6393;BME280;3229;42.674;23.282;2023-02-24T12:08:04;94243.03;;;20.15;48.38
6393;BME280;3229;42.674;23.282;2023-02-24T12:10:40;94238.03;;;20.20;48.26
6393;BME280;3229;42.674;23.282;2023-02-24T12:13:17;94236.66;;;20.18;48.30
6393;BME280;3229;42.674;23.282;2023-02-24T12:15:54;94237.22;;;20.20;48.46
6393;BME280;3229;42.674;23.282;2023-02-24T12:18:25;94223.50;;;20.13;48.26
6393;BME280;3229;42.674;23.282;2023-02-24T12:20:56;94221.53;;;20.08;48.52
6393;BME280;3229;42.674;23.282;2023-02-24T12:23:28;94222.16;;;20.03;48.56
6393;BME280;3229;42.674;23.282;2023-02-24T12:26:06;94228.53;;;20.01;48.60
6393;BME280;3229;42.674;23.282;2023-02-24T12:28:49;94232.16;;;20.00;48.77
6393;BME280;3229;42.674;23.282;2023-02-24T12:31:26;94226.56;;;19.96;48.66
6393;BME280;3229;42.674;23.282;2023-02-24T12:34:04;94218.16;;;20.01;48.61
6393;BME280;3229;42.674;23.282;2023-02-24T12:36:56;94219.75;;;20.02;48.49
6393;BME280;3229;42.674;23.282;2023-02-24T12:39:30;94230.75;;;19.97;48.67
6393;BME280;3229;42.674;23.282;2023-02-24T12:42:11;94225.22;;;19.87;48.73
6393;BME280;3229;42.674;23.282;2023-02-24T12:44:47;94213.72;;;19.70;48.77
6393;BME280;3229;42.674;23.282;2023-02-24T12:47:24;94227.69;;;19.62;48.87
6393;BME280;3229;42.674;23.282;2023-02-24T12:50:22;94245.88;;;19.49;49.11
6393;BME280;3229;42.674;23.282;2023-02-24T12:52:55;94245.28;;;19.34;49.37
6393;BME280;3229;42.674;23.282;2023-02-24T12:55:31;94227.56;;;19.24;49.42
6393;BME280;3229;42.674;23.282;2023-02-24T12:58:07;94198.69;;;19.14;49.45
6393;BME280;3229;42.674;23.282;2023-02-24T13:00:42;94207.03;;;19.16;49.52
6393;BME280;3229;42.674;23.282;2023-02-24T13:03:23;94200.06;;;19.16;49.52
6393;BME280;3229;42.674;23.282;2023-02-24T13:06:01;94186.28;;;19.22;49.50
6393;BME280;3229;42.674;23.282;2023-02-24T13:08:40;94197.25;;;19.24;49.45
6393;BME280;3229;42.674;23.282;2023-02-24T13:11:16;94191.47;;;19.22;49.39
6393;BME280;3229;42.674;23.282;2023-02-24T13:13:52;94191.47;;;19.22;49.39
6393;BME280;3229;42.674;23.282;2023-02-24T13:16:29;94181.13;;;19.09;50.03
6393;BME280;3229;42.674;23.282;2023-02-24T13:19:15;94189.31;;;19.06;50.23
6393;BME280;3229;42.674;23.282;2023-02-24T13:21:53;94179.75;;;18.93;50.39
6393;BME280;3229;42.674;23.282;2023-02-24T13:24:23;94183.78;;;18.83;50.65
6393;BME280;3229;42.674;23.282;2023-02-24T13:26:51;94180.78;;;18.72;50.79
6393;BME280;3229;42.674;23.282;2023-02-24T13:29:30;94178.94;;;18.60;51.03
6393;BME280;3229;42.674;23.282;2023-02-24T13:32:30;94159.81;;;18.47;51.39
6393;BME280;3229;42.674;23.282;2023-02-24T13:35:01;94161.44;;;18.35;51.55
6393;BME280;3229;42.674;23.282;2023-02-24T13:37:32;94197.06;;;18.26;51.71
6393;BME280;3229;42.674;23.282;2023-02-24T13:40:21;94191.47;;;18.16;52.04
6393;BME280;3229;42.674;23.282;2023-02-24T13:42:56;94177.91;;;18.08;52.24
6393;BME280;3229;42.674;23.282;2023-02-24T13:45:24;94158.78;;;17.95;52.25
6393;BME280;3229;42.674;23.282;2023-02-24T13:48:41;94162.94;;;17.90;52.45